createdAt,value
2017-12-19T00:01:04.541Z,15.10
2017-12-19T00:03:39.304Z,15.23
2017-12-19T00:06:14.160Z,18.67
2017-12-19T00:08:48.408Z,17.92
2017-12-19T00:11:22.308Z,18.92
2017-12-19T00:13:56.601Z,18.02
2017-12-19T00:16:31.521Z,20.62
2017-12-19T00:19:05.330Z,16.15
2017-12-19T00:21:39.722Z,15.45
2017-12-19T00:24:14.379Z,16.30
2017-12-19T00:26:49.928Z,15.38
2017-12-19T00:29:25.164Z,18.60
2017-12-19T00:32:00.013Z,17.08
2017-12-19T00:34:34.099Z,18.35
2017-12-19T00:37:08.386Z,13.80
2017-12-19T00:39:42.668Z,13.70
2017-12-19T00:42:17.816Z,14.73
2017-12-19T00:44:52.330Z,17.87
2017-12-19T00:47:26.346Z,17.15
2017-12-19T00:50:00.645Z,19.40
2017-12-19T00:52:34.501Z,18.83
2017-12-19T00:55:08.899Z,15.90
2017-12-19T00:57:43.162Z,22.17
2017-12-19T01:00:18.170Z,15.35
2017-12-19T01:02:52.802Z,15.98
2017-12-19T01:05:26.740Z,13.98
2017-12-19T01:08:01.018Z,18.87
2017-12-19T01:10:35.216Z,17.58
2017-12-19T01:13:10.643Z,20.52
2017-12-19T01:15:44.829Z,15.60
2017-12-19T01:18:19.194Z,15.55
2017-12-19T01:20:53.436Z,16.45
2017-12-19T01:23:27.587Z,17.48
2017-12-19T01:26:02.451Z,21.23
2017-12-19T01:28:36.258Z,13.62
2017-12-19T01:31:10.349Z,14.93
2017-12-19T01:33:47.180Z,15.93
2017-12-19T01:36:22.080Z,16.95
2017-12-19T01:38:56.155Z,19.75
2017-12-19T01:41:31.005Z,19.17
2017-12-19T01:44:06.094Z,15.00
2017-12-19T01:46:39.694Z,13.75
2017-12-19T01:49:13.973Z,15.40
2017-12-19T01:51:47.982Z,15.48
2017-12-19T01:54:23.450Z,12.77
2017-12-19T01:56:57.960Z,13.60
2017-12-19T01:59:32.389Z,13.95
2017-12-19T02:02:06.531Z,13.30
2017-12-19T02:04:40.676Z,17.85
2017-12-19T02:07:15.530Z,11.80
2017-12-19T02:09:49.269Z,17.27
2017-12-19T02:12:24.355Z,18.37
2017-12-19T02:14:58.385Z,15.65
2017-12-19T02:17:32.156Z,13.60
2017-12-19T02:20:06.105Z,16.90
2017-12-19T02:22:41.651Z,16.77
2017-12-19T02:25:15.823Z,14.30
2017-12-19T02:27:49.810Z,14.25
2017-12-19T02:30:24.316Z,15.48
2017-12-19T02:32:58.681Z,12.45
2017-12-19T02:35:33.350Z,13.90
2017-12-19T02:38:07.290Z,19.58
2017-12-19T02:40:41.510Z,17.58
2017-12-19T02:43:20.938Z,17.05
2017-12-19T02:45:56.434Z,18.50
2017-12-19T02:48:33.071Z,15.68
2017-12-19T02:51:08.064Z,15.18
2017-12-19T02:53:43.063Z,19.85
2017-12-19T02:56:18.793Z,16.87
2017-12-19T02:58:53.180Z,16.40
2017-12-19T03:01:26.997Z,17.30
2017-12-19T03:04:00.878Z,18.65
2017-12-19T03:06:35.296Z,16.58
2017-12-19T03:09:10.161Z,17.98
2017-12-19T03:11:44.084Z,18.62
2017-12-19T03:14:18.797Z,20.17
2017-12-19T03:16:52.666Z,20.62
2017-12-19T03:19:27.045Z,21.08
2017-12-19T03:22:01.131Z,20.10
2017-12-19T03:24:35.276Z,20.37
2017-12-19T03:27:09.203Z,16.77
2017-12-19T03:29:43.554Z,19.30
2017-12-19T03:32:17.714Z,19.20
2017-12-19T03:34:51.677Z,18.77
2017-12-19T03:37:26.298Z,17.80
2017-12-19T03:40:00.453Z,20.40
2017-12-19T03:42:34.603Z,16.37
2017-12-19T03:45:09.318Z,17.45
2017-12-19T03:47:44.494Z,20.20
2017-12-19T03:50:19.709Z,17.83
2017-12-19T03:52:53.595Z,19.83
2017-12-19T03:55:29.363Z,17.00
2017-12-19T03:58:04.267Z,21.10
2017-12-19T04:00:38.889Z,22.30
2017-12-19T04:03:14.844Z,17.35
2017-12-19T04:05:49.066Z,18.27
2017-12-19T04:08:23.624Z,26.17
2017-12-19T04:10:57.836Z,22.33
2017-12-19T04:13:31.591Z,19.25
2017-12-19T04:16:05.735Z,20.40
2017-12-19T04:18:40.650Z,19.20
2017-12-19T04:21:15.605Z,18.42
2017-12-19T04:23:50.535Z,19.40
2017-12-19T04:26:24.651Z,18.62
2017-12-19T04:28:58.897Z,18.65
2017-12-19T04:31:33.904Z,23.38
2017-12-19T04:34:08.744Z,23.08
2017-12-19T04:36:43.938Z,23.87
2017-12-19T04:39:19.527Z,17.75
2017-12-19T04:41:53.765Z,23.65
2017-12-19T04:44:29.142Z,21.05
2017-12-19T04:47:03.846Z,23.50
2017-12-19T04:49:38.059Z,23.05
2017-12-19T04:52:12.139Z,22.17
2017-12-19T04:54:46.432Z,22.62
2017-12-19T04:57:20.203Z,20.08
2017-12-19T04:59:55.139Z,18.55
2017-12-19T05:02:29.512Z,22.45
2017-12-19T05:05:03.161Z,21.17
2017-12-19T05:07:37.887Z,30.48
2017-12-19T05:10:12.323Z,30.95
2017-12-19T05:12:47.158Z,28.40
2017-12-19T05:15:21.677Z,22.95
2017-12-19T05:17:55.936Z,17.37
2017-12-19T05:20:30.666Z,20.30
2017-12-19T05:23:05.384Z,20.62
2017-12-19T05:25:39.537Z,20.02
2017-12-19T05:28:13.656Z,22.58
2017-12-19T05:30:47.543Z,21.20
2017-12-19T05:33:21.651Z,21.58
2017-12-19T05:35:56.558Z,20.23
2017-12-19T05:38:31.261Z,19.37
2017-12-19T05:41:05.428Z,22.52
2017-12-19T05:43:39.578Z,24.25
2017-12-19T05:46:13.765Z,19.77
2017-12-19T05:48:48.103Z,20.90
2017-12-19T05:51:22.220Z,21.95
2017-12-19T05:53:57.132Z,22.73
2017-12-19T05:56:31.051Z,22.27
2017-12-19T05:59:05.320Z,19.95
2017-12-19T06:01:40.925Z,20.23
2017-12-19T06:04:15.298Z,22.50
2017-12-19T06:06:49.294Z,21.10
2017-12-19T06:09:23.200Z,24.58
2017-12-19T06:11:57.917Z,21.98
2017-12-19T06:14:31.731Z,29.20
2017-12-19T06:17:05.864Z,21.52
2017-12-19T06:19:41.628Z,23.62
2017-12-19T06:22:15.943Z,27.37
2017-12-19T06:24:50.870Z,23.42
2017-12-19T06:27:24.714Z,28.27
2017-12-19T06:29:58.625Z,28.35
2017-12-19T06:32:32.541Z,26.02
2017-12-19T06:35:06.655Z,24.80
2017-12-19T06:37:41.548Z,24.60
2017-12-19T06:40:18.746Z,26.58
2017-12-19T06:42:53.004Z,25.33
2017-12-19T06:45:27.220Z,28.38
2017-12-19T06:48:02.088Z,31.60
2017-12-19T06:50:36.531Z,33.72
2017-12-19T06:53:11.836Z,28.35
2017-12-19T06:55:45.756Z,29.80
2017-12-19T06:58:20.485Z,28.75
2017-12-19T07:00:55.430Z,34.15
2017-12-19T07:03:30.528Z,28.80
2017-12-19T07:06:04.739Z,33.80
2017-12-19T07:08:40.346Z,42.35
2017-12-19T07:11:15.648Z,30.95
2017-12-19T07:13:50.003Z,35.95
2017-12-19T07:16:24.287Z,30.70
2017-12-19T07:18:58.499Z,32.60
2017-12-19T07:21:33.495Z,38.10
2017-12-19T07:24:07.318Z,36.45
2017-12-19T07:26:42.768Z,37.65
2017-12-19T07:29:16.736Z,31.92
2017-12-19T07:31:51.505Z,32.47
2017-12-19T07:34:26.473Z,32.65
2017-12-19T07:37:00.756Z,29.92
2017-12-19T07:39:36.031Z,35.10
2017-12-19T07:42:11.363Z,32.80
2017-12-19T07:44:45.284Z,30.55
2017-12-19T07:47:20.260Z,34.15
2017-12-19T07:49:54.155Z,119.43
2017-12-19T07:52:28.255Z,51.25
2017-12-19T07:55:03.875Z,42.90
2017-12-19T08:02:12.474Z,32.30
2017-12-19T08:04:46.826Z,31.10
2017-12-19T08:07:21.748Z,35.50
2017-12-19T08:09:56.324Z,35.67
2017-12-19T08:12:31.388Z,35.20
2017-12-19T08:15:05.545Z,39.55
2017-12-19T08:17:39.768Z,34.53
2017-12-19T08:20:13.931Z,27.30
2017-12-19T08:22:49.964Z,29.95
2017-12-19T08:25:24.190Z,28.67
2017-12-19T08:27:59.163Z,32.10
2017-12-19T08:30:33.126Z,38.42
2017-12-19T08:33:07.596Z,29.37
2017-12-19T08:35:41.731Z,30.10
2017-12-19T08:38:17.007Z,27.40
2017-12-19T08:40:51.969Z,32.38
2017-12-19T08:43:25.994Z,40.53
2017-12-19T08:46:00.228Z,83.82
2017-12-19T08:48:34.271Z,32.67
2017-12-19T08:51:08.450Z,27.95
2017-12-19T08:53:43.003Z,22.73
2017-12-19T08:56:19.191Z,24.85
2017-12-19T08:58:53.261Z,32.47
2017-12-19T09:01:27.305Z,23.67
2017-12-19T09:04:01.267Z,25.67
2017-12-19T09:06:35.665Z,35.40
2017-12-19T09:09:09.895Z,29.52
2017-12-19T09:11:44.500Z,62.13
2017-12-19T09:14:18.948Z,30.08
2017-12-19T09:16:53.237Z,25.25
2017-12-19T09:19:28.079Z,41.70
2017-12-19T09:22:02.998Z,34.22
2017-12-19T09:24:37.108Z,39.83
2017-12-19T09:27:10.997Z,56.28
2017-12-19T09:29:45.308Z,44.47
2017-12-19T09:32:19.464Z,34.70
2017-12-19T09:34:53.366Z,33.28
2017-12-19T09:37:27.580Z,28.20
2017-12-19T09:40:02.661Z,41.33
2017-12-19T09:42:36.798Z,48.45
2017-12-19T09:45:11.694Z,22.95
2017-12-19T09:47:45.820Z,51.72
2017-12-19T09:50:19.925Z,34.35
2017-12-19T09:52:54.147Z,18.62
2017-12-19T09:55:28.371Z,26.98
2017-12-19T09:58:02.571Z,20.55
2017-12-19T10:00:36.754Z,18.95
2017-12-19T10:03:11.531Z,24.27
2017-12-19T10:05:45.696Z,28.85
2017-12-19T10:08:19.507Z,33.85
2017-12-19T10:10:53.783Z,40.95
2017-12-19T10:13:27.837Z,35.08
2017-12-19T10:16:01.658Z,29.12
2017-12-19T10:18:35.623Z,24.10
2017-12-19T10:21:09.756Z,26.08
2017-12-19T10:23:43.899Z,19.45
2017-12-19T10:26:18.732Z,23.65
2017-12-19T10:28:53.699Z,21.15
2017-12-19T10:31:28.367Z,22.92
2017-12-19T10:34:02.651Z,19.17
2017-12-19T10:36:37.234Z,20.12
2017-12-19T10:39:11.222Z,19.90
2017-12-19T10:41:46.278Z,26.92
2017-12-19T10:44:20.336Z,18.12
2017-12-19T10:46:54.571Z,18.12
2017-12-19T10:49:28.707Z,16.90
2017-12-19T10:52:03.205Z,18.75
2017-12-19T10:54:37.989Z,20.37
2017-12-19T10:57:12.397Z,18.92
2017-12-19T10:59:46.269Z,18.85
2017-12-19T11:02:20.817Z,25.95
2017-12-19T11:04:55.618Z,23.00
2017-12-19T11:07:29.532Z,19.48
2017-12-19T11:10:05.296Z,22.23
2017-12-19T11:12:40.080Z,21.20
2017-12-19T11:15:14.106Z,19.37
2017-12-19T11:17:48.131Z,19.05
2017-12-19T11:20:22.709Z,18.37
2017-12-19T11:22:57.393Z,22.27
2017-12-19T11:25:32.398Z,18.60
2017-12-19T11:28:06.589Z,20.10
2017-12-19T11:30:40.698Z,18.45
2017-12-19T11:33:15.795Z,19.42
2017-12-19T11:35:50.227Z,22.70
2017-12-19T11:38:24.473Z,16.77
2017-12-19T11:41:00.479Z,19.40
2017-12-19T11:43:35.225Z,15.65
2017-12-19T11:46:09.708Z,19.95
2017-12-19T11:48:43.675Z,13.10
2017-12-19T11:51:17.733Z,15.05
2017-12-19T11:53:52.572Z,16.17
2017-12-19T11:56:26.955Z,34.08
2017-12-19T11:59:00.898Z,20.00
2017-12-19T12:01:36.432Z,16.37
2017-12-19T12:04:11.563Z,16.55
2017-12-19T12:06:47.593Z,25.30
2017-12-19T12:09:22.218Z,17.52
2017-12-19T12:11:56.568Z,17.37
2017-12-19T12:14:30.825Z,19.02
2017-12-19T12:17:05.361Z,18.12
2017-12-19T12:19:39.913Z,17.62
2017-12-19T12:22:15.999Z,16.27
2017-12-19T12:24:50.167Z,17.50
2017-12-19T12:27:24.014Z,21.60
2017-12-19T12:29:58.171Z,15.40
2017-12-19T12:32:32.604Z,17.60
2017-12-19T12:35:06.634Z,16.65
2017-12-19T12:37:41.462Z,15.85
2017-12-19T12:40:15.281Z,16.95
2017-12-19T12:42:49.242Z,19.08
2017-12-19T12:45:23.146Z,16.17
2017-12-19T12:47:57.302Z,14.10
2017-12-19T12:50:31.443Z,14.20
2017-12-19T12:53:05.892Z,13.95
2017-12-19T12:55:41.438Z,15.27
2017-12-19T12:58:15.738Z,13.35
2017-12-19T13:00:49.986Z,21.12
2017-12-19T13:03:24.451Z,16.90
2017-12-19T13:05:58.796Z,22.77
2017-12-19T13:08:32.955Z,78.62
2017-12-19T13:11:08.941Z,24.17
2017-12-19T13:13:43.679Z,24.25
2017-12-19T13:16:17.853Z,14.38
2017-12-19T13:18:54.123Z,17.52
2017-12-19T13:21:28.391Z,16.37
2017-12-19T13:24:03.246Z,17.42
2017-12-19T13:26:38.493Z,19.35
2017-12-19T13:29:13.565Z,17.05
2017-12-19T13:31:48.477Z,18.23
2017-12-19T13:34:22.448Z,20.70
2017-12-19T13:36:57.342Z,24.95
2017-12-19T13:39:32.010Z,14.25
2017-12-19T13:42:05.925Z,14.57
2017-12-19T13:44:39.993Z,18.95
2017-12-19T13:47:14.036Z,10.27
2017-12-19T13:49:48.251Z,9.45
2017-12-19T13:52:22.502Z,14.65
2017-12-19T13:54:57.163Z,16.55
2017-12-19T13:57:31.381Z,22.62
2017-12-19T14:00:05.783Z,22.85
2017-12-19T14:02:39.955Z,15.18
2017-12-19T14:05:14.675Z,12.02
2017-12-19T14:07:48.564Z,75.15
2017-12-19T14:10:22.320Z,13.88
2017-12-19T14:12:56.886Z,12.18
2017-12-19T14:15:31.153Z,10.73
2017-12-19T14:18:05.577Z,11.95
2017-12-19T14:20:40.498Z,17.55
2017-12-19T14:23:14.846Z,15.55
2017-12-19T14:25:49.249Z,14.02
2017-12-19T14:28:23.316Z,15.43
2017-12-19T14:30:57.957Z,15.85
2017-12-19T14:33:32.084Z,14.20
2017-12-19T14:36:06.422Z,13.88
2017-12-19T14:38:40.568Z,16.33
2017-12-19T14:41:14.715Z,16.10
2017-12-19T14:43:49.893Z,17.08
2017-12-19T14:46:24.437Z,21.52
2017-12-19T14:48:58.646Z,17.45
2017-12-19T14:51:32.970Z,17.50
2017-12-19T14:54:07.383Z,27.30
2017-12-19T14:56:42.275Z,19.12
2017-12-19T14:59:16.437Z,26.30
2017-12-19T15:01:50.728Z,26.65
2017-12-19T15:04:24.764Z,27.83
2017-12-19T15:06:58.735Z,29.12
2017-12-19T15:09:32.534Z,26.08
2017-12-19T15:12:07.145Z,23.75
2017-12-19T15:14:40.907Z,61.05
2017-12-19T15:17:14.952Z,178.55
2017-12-19T15:19:48.926Z,105.75
2017-12-19T15:22:23.315Z,114.93
2017-12-19T15:24:57.317Z,60.88
2017-12-19T15:27:31.470Z,31.23
2017-12-19T15:30:06.358Z,24.42
2017-12-19T15:32:41.295Z,28.50
2017-12-19T15:35:15.526Z,28.95
2017-12-19T15:37:49.237Z,22.52
2017-12-19T15:40:23.381Z,24.17
2017-12-19T15:42:57.656Z,28.05
2017-12-19T15:45:31.434Z,27.95
2017-12-19T15:48:05.641Z,24.17
2017-12-19T15:50:39.572Z,26.00
2017-12-19T15:53:13.587Z,27.33
2017-12-19T15:55:48.249Z,27.45
2017-12-19T15:58:23.048Z,29.20
2017-12-19T16:00:57.114Z,37.42
2017-12-19T16:03:30.974Z,31.85
2017-12-19T16:06:05.053Z,47.60
2017-12-19T16:08:40.933Z,37.55
2017-12-19T16:11:15.146Z,25.25
2017-12-19T16:13:49.222Z,32.22
2017-12-19T16:16:23.336Z,20.65
2017-12-19T16:18:57.958Z,25.37
2017-12-19T16:21:31.806Z,23.12
2017-12-19T16:24:06.097Z,49.58
2017-12-19T16:26:40.084Z,40.00
2017-12-19T16:29:14.271Z,27.08
2017-12-19T16:31:48.120Z,32.38
2017-12-19T16:34:21.993Z,29.05
2017-12-19T16:36:56.051Z,65.18
2017-12-19T16:39:31.288Z,60.20
2017-12-19T16:42:05.247Z,55.25
2017-12-19T16:44:39.516Z,67.20
2017-12-19T16:47:13.351Z,109.37
2017-12-19T16:49:48.417Z,100.75
2017-12-19T16:52:23.208Z,179.77
2017-12-19T16:54:57.142Z,61.03
2017-12-19T16:57:32.099Z,53.35
2017-12-19T17:00:06.348Z,57.62
2017-12-19T17:02:40.423Z,33.60
2017-12-19T17:05:15.377Z,24.80
2017-12-19T17:07:49.582Z,32.67
2017-12-19T17:10:23.916Z,31.17
2017-12-19T17:12:58.028Z,22.77
2017-12-19T17:15:32.119Z,24.08
2017-12-19T17:18:06.131Z,30.88
2017-12-19T17:20:39.965Z,26.65
2017-12-19T17:23:13.942Z,23.70
2017-12-19T17:25:48.078Z,19.15
2017-12-19T17:28:22.854Z,22.80
2017-12-19T17:30:56.769Z,24.63
2017-12-19T17:33:32.543Z,24.45
2017-12-19T17:36:06.510Z,35.13
2017-12-19T17:38:40.773Z,31.40
2017-12-19T17:41:15.448Z,25.65
2017-12-19T17:43:49.317Z,32.75
2017-12-19T17:46:23.839Z,31.42
2017-12-19T17:48:57.553Z,26.90
2017-12-19T17:51:31.313Z,22.13
2017-12-19T17:54:04.987Z,20.10
2017-12-19T17:56:38.837Z,60.47
2017-12-19T17:59:12.795Z,32.92
2017-12-19T18:01:46.775Z,32.05
2017-12-19T18:04:20.522Z,20.75
2017-12-19T18:06:54.387Z,27.90
2017-12-19T18:09:28.039Z,17.17
2017-12-19T18:12:01.871Z,18.27
2017-12-19T18:14:35.608Z,23.02
2017-12-19T18:17:09.388Z,23.20
2017-12-19T18:19:43.301Z,20.83
2017-12-19T18:22:17.780Z,21.60
2017-12-19T18:24:51.637Z,25.92
2017-12-19T18:27:26.181Z,22.77
2017-12-19T18:30:00.025Z,23.20
2017-12-19T18:32:33.695Z,30.37
2017-12-19T18:35:07.454Z,21.23
2017-12-19T18:37:41.900Z,32.90
2017-12-19T18:40:15.503Z,34.60
2017-12-19T18:42:49.170Z,35.33
2017-12-19T18:45:22.928Z,35.65
2017-12-19T18:47:57.310Z,26.85
2017-12-19T18:50:30.893Z,24.15
2017-12-19T18:53:04.653Z,21.37
2017-12-19T18:55:38.914Z,19.52
2017-12-19T18:58:12.601Z,70.30
2017-12-19T19:00:46.414Z,33.30
2017-12-19T19:03:19.965Z,20.83
2017-12-19T19:05:53.493Z,24.42
2017-12-19T19:08:27.196Z,22.85
2017-12-19T19:11:00.755Z,26.80
2017-12-19T19:13:34.363Z,21.20
2017-12-19T19:16:07.918Z,24.50
2017-12-19T19:18:41.487Z,25.75
2017-12-19T19:21:15.378Z,28.23
2017-12-19T19:23:48.989Z,30.55
2017-12-19T19:26:22.582Z,67.50
2017-12-19T19:28:56.383Z,43.00
2017-12-19T19:31:30.217Z,28.00
2017-12-19T19:34:03.868Z,27.77
2017-12-19T19:36:37.604Z,36.55
2017-12-19T19:39:11.467Z,22.50
2017-12-19T19:41:45.232Z,34.72
2017-12-19T19:44:19.032Z,43.92
2017-12-19T19:46:53.616Z,31.98
2017-12-19T19:49:27.529Z,30.92
2017-12-19T19:52:01.267Z,61.42
2017-12-19T19:54:34.960Z,31.27
2017-12-19T19:57:08.750Z,32.90
2017-12-19T19:59:42.402Z,29.40
2017-12-19T20:02:16.158Z,29.27
2017-12-19T20:04:50.748Z,46.83
2017-12-19T20:07:24.396Z,55.72
2017-12-19T20:09:57.998Z,49.25
2017-12-19T20:12:31.828Z,31.25
2017-12-19T20:15:05.604Z,33.97
2017-12-19T20:17:39.313Z,88.18
2017-12-19T20:20:13.133Z,83.75
2017-12-19T20:22:46.790Z,46.80
2017-12-19T20:25:20.389Z,38.75
2017-12-19T20:27:54.101Z,46.30
2017-12-19T20:30:27.749Z,32.95
2017-12-19T20:33:02.341Z,24.37
2017-12-19T20:35:36.059Z,78.85
2017-12-19T20:38:10.574Z,102.87
2017-12-19T20:40:44.356Z,76.03
2017-12-19T20:43:18.181Z,101.40
2017-12-19T20:45:51.778Z,63.00
2017-12-19T20:48:25.509Z,79.70
2017-12-19T20:50:59.957Z,84.10
2017-12-19T20:53:33.524Z,74.25
2017-12-19T20:56:13.169Z,77.28
2017-12-19T20:58:46.726Z,89.50
2017-12-19T21:01:20.340Z,86.28
2017-12-19T21:03:54.132Z,51.50
2017-12-19T21:06:27.718Z,121.18
2017-12-19T21:09:01.428Z,38.92
2017-12-19T21:11:35.099Z,45.85
2017-12-19T21:14:08.732Z,36.33
2017-12-19T21:16:42.486Z,40.70
2017-12-19T21:19:16.232Z,31.95
2017-12-19T21:21:49.884Z,33.45
2017-12-19T21:24:23.647Z,33.10
2017-12-19T21:26:57.310Z,37.03
2017-12-19T21:29:31.034Z,38.60
2017-12-19T21:32:04.665Z,35.35
2017-12-19T21:34:38.494Z,39.95
2017-12-19T21:37:12.313Z,49.55
2017-12-19T21:39:45.973Z,38.70
2017-12-19T21:42:19.639Z,42.13
2017-12-19T21:44:54.197Z,45.97
2017-12-19T21:47:30.712Z,43.42
2017-12-19T21:50:05.660Z,41.33
2017-12-19T21:52:39.477Z,37.47
2017-12-19T21:55:14.818Z,46.95
2017-12-19T21:57:51.936Z,41.35
2017-12-19T22:00:25.780Z,46.37
2017-12-19T22:02:59.447Z,39.17
2017-12-19T22:05:35.658Z,48.70
2017-12-19T22:08:09.601Z,41.00
2017-12-19T22:10:43.524Z,46.90
2017-12-19T22:13:17.236Z,44.40
2017-12-19T22:15:51.868Z,47.20
2017-12-19T22:18:25.540Z,42.92
2017-12-19T22:21:00.360Z,49.00
2017-12-19T22:23:35.007Z,37.97
2017-12-19T22:26:10.196Z,43.20
2017-12-19T22:28:46.371Z,41.33
2017-12-19T22:31:21.822Z,38.88
2017-12-19T22:33:55.618Z,33.83
2017-12-19T22:36:30.335Z,35.63
2017-12-19T22:39:04.814Z,34.88
2017-12-19T22:41:38.979Z,33.72
2017-12-19T22:44:15.556Z,35.15
2017-12-19T22:46:49.330Z,30.92
2017-12-19T22:49:22.926Z,37.30
2017-12-19T22:51:59.106Z,31.98
2017-12-19T22:54:32.688Z,32.88
2017-12-19T22:57:06.492Z,32.47
2017-12-19T22:59:40.132Z,44.65
2017-12-19T23:02:13.827Z,27.17
2017-12-19T23:04:47.419Z,30.17
2017-12-19T23:07:21.099Z,31.10
2017-12-19T23:09:54.842Z,40.42
2017-12-19T23:12:29.147Z,34.97
2017-12-19T23:15:02.803Z,31.98
2017-12-19T23:17:36.473Z,33.97
2017-12-19T23:20:10.091Z,37.55
2017-12-19T23:22:43.814Z,32.65
2017-12-19T23:25:18.274Z,33.58
2017-12-19T23:27:52.754Z,32.63
2017-12-19T23:30:26.478Z,34.03
2017-12-19T23:33:00.138Z,32.30
2017-12-19T23:35:33.855Z,34.08
2017-12-19T23:38:07.543Z,31.70
2017-12-19T23:40:41.284Z,36.97
2017-12-19T23:43:15.501Z,37.00
2017-12-19T23:45:49.158Z,31.87
2017-12-19T23:48:22.827Z,34.42
2017-12-19T23:50:56.567Z,33.22
2017-12-19T23:53:30.233Z,32.30
2017-12-19T23:56:03.874Z,32.80
2017-12-19T23:58:37.427Z,31.02
